Latest Coastal Weather Observations for Ceduna

IDS60701

Issued at 3:51 am CST Friday 31 July 2015 (issued every 10 minutes, with the page automatically refreshed every 10 minutes)

About coastal observations | Map of coastal stations | Coastal observations for SA | Marine services | Other Formats
Station Details ID: 018012 Name: CEDUNA AMO Lat: -32.13 Lon: 133.70 Height: 15.3 m
Data from the previous 72 hours. | See also: Recent months at Ceduna
Date/Time
CST
Temp

°C
Wind Pressure Rain
since 9am
mm
Weather Cloud Vis
km
Sea
Height
m
Swell
Dir
 
Speed
knots
Gust
knots
hPa Trend Height
m
Period
s
Dir
31/03:30am 7.2 NNE 5 5 1021.5 - 0.0 - Cloudy 0.2 - - - -
31/03:00am 7.4 NNE 3 6 1021.7 F 0.0 - Cloudy 0.2 - - - -
31/02:30am 6.4 CALM 0 0 1022.1 - 0.0 - Cloudy 0.2 - - - -
31/02:00am 7.3 N 1 4 1022.4 - 0.0 - Cloudy 0.1 - - - -
31/01:30am 7.4 NNW 1 3 1022.3 - 0.0 - Cloudy 0.1 - - - -
31/01:00am 7.8 N 4 5 1022.5 - 0.0 - Cloudy 0.1 - - - -
31/12:30am 7.6 NNE 4 5 1022.4 - 0.0 - Cloudy 0.1 - - - -
31/12:00am 7.6 NNE 3 4 1022.8 F 0.0 - Cloudy 0.1 - - - -
 
Date/Time
CST
Temp

°C
Wind Pressure Rain
since 9am
mm
Weather Cloud Vis
km
Sea
Height
m
Swell
Dir
 
Speed
knots
Gust
knots
hPa Trend Height
m
Period
s
Dir
30/11:30pm 7.6 N 5 6 1023.3 - 0.0 - Cloudy 0.2 - - - -
30/11:00pm 7.0 N 4 5 1023.4 - 0.0 - Partly cloudy 0.1 - - - -
30/10:42pm 6.3 CALM 0 0 1023.5 - 0.0 - Partly cloudy 0.2 - - - -
30/10:30pm 6.3 CALM 0 0 1023.5 - 0.0 - Partly cloudy 0.3 - - - -
30/10:07pm 6.2 CALM 0 0 1023.5 - 0.0 - Partly cloudy 0.3 - - - -
30/10:00pm 6.0 CALM 0 2 1023.6 - 0.0 - Partly cloudy 0.2 - - - -
30/09:30pm 6.8 N 3 4 1023.5 - 0.0 - Cloudy 0.1 - - - -
30/09:07pm 7.3 NNE 3 4 1023.3 - 0.0 - Partly cloudy 0.2 - - - -
30/09:00pm 7.7 NNE 3 4 1023.2 R 0.0 - Mostly clear 0.4 - - - -
30/08:30pm 8.8 W 3 4 1023.4 - 0.0 - - 0.4 - - - -
30/08:00pm 9.2 SW 4 4 1023.1 - 0.0 - - 0.3 - - - -
30/07:30pm 10.9 SW 3 4 1023.0 - 0.0 - - 2 - - - -
30/07:27pm 11.5 SW 3 4 1023.0 - 0.0 - - 5 - - - -
30/07:00pm 12.0 WSW 4 6 1022.6 - 0.0 - - 10 - - - -
30/06:30pm 13.1 WSW 6 7 1022.0 - 0.0 - - 10 - - - -
30/06:00pm 14.2 WSW 7 8 1021.6 R 0.0 - - 10 - - - -
30/05:30pm 15.7 W 7 9 1021.6 - 0.0 - Partly cloudy 10 - - - -
30/05:00pm 16.7 WSW 10 12 1021.6 - 0.0 - Partly cloudy 10 - - - -
30/04:30pm 17.1 WSW 10 12 1021.2 - 0.0 - - 10 - - - -
30/04:00pm 17.0 WSW 11 13 1021.2 - 0.0 - - 10 - - - -
30/03:30pm 17.6 WSW 11 14 1020.8 - 0.0 - - 10 - - - -
30/03:00pm 18.0 WSW 13 16 1020.7 R 0.0 - - 10 - - - -
30/02:30pm 17.7 WSW 13 17 1020.9 - 0.0 - - 10 - - - -
30/02:00pm 17.4 WSW 14 17 1020.8 - 0.0 - Partly cloudy 10 - - - -
30/01:30pm 17.6 WSW 14 17 1021.0 - 0.0 - Partly cloudy 10 - - - -
30/01:00pm 18.3 WSW 13 16 1021.2 - 0.0 - - 10 - - - -
30/12:30pm 18.3 WSW 15 20 1021.5 - 0.0 - Partly cloudy 10 - - - -
30/12:00pm 19.1 WSW 11 16 1021.7 R 0.0 - Mostly clear 10 - - - -
30/11:30am 18.2 WNW 8 11 1021.6 - 0.0 - Partly cloudy 10 - - - -
30/11:00am 18.3 WNW 9 11 1021.4 - 0.0 - Partly cloudy 10 - - - -
30/10:30am 17.4 NW 9 11 1021.3 - 0.0 - Partly cloudy 10 - - - -
30/10:00am 15.7 NNW 8 10 1021.2 - 0.0 - Partly cloudy 10 - - - -
30/09:30am 15.1 NNW 7 10 1020.9 - 0.0 - Partly cloudy 10 - - - -
30/09:00am 14.1 NNW 7 9 1020.5 R 0.0 - Cloudy 10 - - - -
30/08:30am 13.5 NNW 6 8 1020.5 - 0.0 - Partly cloudy 10 - - - -
30/08:00am 12.4 N 7 8 1019.6 - 0.0 - - 10 - - - -
30/07:30am 13.4 NW 3 5 1019.5 - 0.0 - Partly cloudy 10 - - - -
30/07:00am 14.2 WNW 8 9 1019.4 - 0.0 - Partly cloudy 10 - - - -
30/06:30am 14.9 NNW 11 15 1018.7 - 0.0 - Partly cloudy 10 - - - -
30/06:00am 15.5 NNW 10 14 1018.8 R 0.0 - Cloudy 10 - - - -
30/05:30am 15.3 N 13 17 1018.1 - 0.0 - Cloudy 10 - - - -
30/05:00am 15.5 N 13 17 1017.9 - 0.0 - Cloudy 10 - - - -
30/04:30am 15.7 N 13 17 1018.1 - 0.0 - Cloudy 10 - - - -
30/04:00am 15.7 N 15 20 1018.2 - 0.0 - Cloudy 10 - - - -
30/03:30am 15.5 N 14 19 1018.2 - 0.0 - Cloudy 10 - - - -
30/03:00am 15.3 N 15 20 1018.5 F 0.0 - Cloudy 10 - - - -
30/02:30am 15.2 N 14 19 1019.0 - 0.0 - Cloudy 10 - - - -
30/02:00am 15.0 N 15 21 1019.2 - 0.0 - Cloudy 10 - - - -
30/01:30am 15.0 N 15 21 1019.6 - 0.0 - Cloudy 10 - - - -
30/01:00am 15.4 N 13 18 1020.0 - 0.0 - Cloudy 10 - - - -
30/12:30am 15.3 N 12 17 1020.4 - 0.0 - Cloudy 10 - - - -
30/12:00am 15.4 N 11 15 1020.8 F 0.0 - Mostly cloudy 10 - - - -
 
Date/Time
CST
Temp

°C
Wind Pressure Rain
since 9am
mm
Weather Cloud Vis
km
Sea
Height
m
Swell
Dir
 
Speed
knots
Gust
knots
hPa Trend Height
m
Period
s
Dir
29/11:30pm 15.3 NNE 14 18 1020.8 - 0.0 - Cloudy 10 - - - -
29/11:00pm 15.2 NNE 14 18 1020.8 - 0.0 - Partly cloudy 10 - - - -
29/10:30pm 15.5 NNE 15 19 1021.1 - 0.0 - Cloudy 10 - - - -
29/10:00pm 15.5 NNE 14 19 1021.1 - 0.0 - Partly cloudy 10 - - - -
29/09:30pm 15.2 NNE 12 16 1021.4 - 0.0 - Partly cloudy 10 - - - -
29/09:00pm 15.0 NNE 12 15 1021.4 F 0.0 - Cloudy 10 - - - -
29/08:30pm 14.3 NNE 9 12 1021.7 - 0.0 - Cloudy 10 - - - -
29/08:00pm 12.1 NE 8 9 1021.9 - 0.0 - Partly cloudy 10 - - - -
29/07:30pm 13.9 NNE 9 10 1022.0 - 0.0 - Partly cloudy 10 - - - -
29/07:00pm 14.0 NNE 9 11 1021.8 - 0.0 - Partly cloudy 10 - - - -
29/06:30pm 14.1 NNE 8 9 1021.6 - 0.0 - Partly cloudy 10 - - - -
29/06:00pm 15.9 NNE 10 13 1021.2 F 0.0 - Mostly clear 10 - - - -
29/05:30pm 17.4 NNE 11 15 1021.4 - 0.0 - - 10 - - - -
29/05:00pm 18.8 N 14 18 1021.4 - 0.0 - - 10 - - - -
29/04:30pm 19.4 N 17 21 1021.4 - 0.0 - - 10 - - - -
29/04:00pm 19.8 N 17 22 1021.5 - 0.0 - - 10 - - - -
29/03:30pm 19.4 N 17 23 1021.7 - 0.0 - - 10 - - - -
29/03:00pm 19.2 N 18 27 1022.0 F 0.0 - Mostly clear 10 - - - -
29/02:30pm 18.0 N 19 25 1022.4 - 0.0 - Partly cloudy 10 - - - -
29/02:00pm 18.7 N 21 27 1022.7 - 0.0 - Partly cloudy 10 - - - -
29/01:30pm 17.7 N 19 26 1023.5 - 0.0 - Partly cloudy 10 - - - -
29/01:00pm 17.6 N 19 25 1024.1 - 0.0 - - 10 - - - -
29/12:30pm 17.0 N 21 28 1024.9 - 0.0 - - 10 - - - -
29/12:00pm 16.4 N 18 25 1025.8 F 0.0 - - 10 - - - -
29/11:30am 16.0 N 17 24 1026.4 - 0.0 - - 10 - - - -
29/11:00am 14.9 N 15 19 1027.2 - 0.0 - - 10 - - - -
29/10:30am 13.8 N 11 15 1027.9 - 0.0 - - 10 - - - -
29/10:00am 12.1 N 11 15 1028.2 - 0.0 - - 10 - - - -
29/09:30am 11.6 N 13 17 1028.1 - 0.0 - - 10 - - - -
29/09:00am 11.0 N 11 15 1028.2 R 0.0 - Cloudy 10 - - - -
29/08:30am 10.4 N 10 14 1027.7 - 0.0 - - 10 - - - -
29/08:00am 10.0 NNE 11 13 1027.6 - 0.0 - - 10 - - - -
29/07:30am 10.0 N 9 13 1027.8 - 0.0 - - 10 - - - -
29/07:00am 10.7 N 13 17 1027.7 - 0.0 - - 10 - - - -
29/06:30am 10.7 N 12 17 1027.3 - 0.0 - - 10 - - - -
29/06:00am 10.4 NNE 15 22 1026.6 F 0.0 - Cloudy 10 - - - -
29/05:30am 10.0 NNE 13 18 1026.9 - 0.0 - - 10 - - - -
29/05:00am 9.0 NNE 13 17 1027.4 - 0.0 - - 10 - - - -
29/04:30am 8.9 NNE 9 14 1027.9 - 0.0 - - 10 - - - -
29/04:00am 9.7 NNE 8 12 1028.2 - 0.0 - - 10 - - - -
29/03:30am 7.6 NNE 8 10 1028.1 - 0.0 - - 10 - - - -
29/03:00am 7.7 NE 9 12 1028.1 F 0.0 - Mostly cloudy 10 - - - -
29/02:30am 7.2 NE 10 12 1028.3 - 0.0 - - 10 - - - -
29/02:00am 7.5 NE 11 13 1028.5 - 0.0 - - 10 - - - -
29/01:30am 7.3 NE 11 13 1029.4 - 0.0 - - 10 - - - -
29/01:00am 6.6 NE 10 11 1029.3 - 0.0 - - 10 - - - -
29/12:30am 6.7 NE 9 10 1029.3 - 0.0 - - 10 - - - -
29/12:00am 5.5 NE 9 10 1029.5 F 0.0 - Cloudy 10 - - - -
 
Date/Time
CST
Temp

°C
Wind Pressure Rain
since 9am
mm
Weather Cloud Vis
km
Sea
Height
m
Swell
Dir
 
Speed
knots
Gust
knots
hPa Trend Height
m
Period
s
Dir
28/11:30pm 5.3 NE 6 7 1029.8 - 0.0 - - 10 - - - -
28/11:00pm 5.7 NE 6 8 1029.6 - 0.0 - - 10 - - - -
28/10:30pm 6.2 ENE 5 6 1030.2 - 0.0 - - 10 - - - -
28/10:00pm 7.1 ENE 9 11 1030.3 - 0.0 - - 10 - - - -
28/09:30pm 6.7 ENE 8 9 1030.6 - 0.0 - - 10 - - - -
28/09:00pm 7.5 ENE 9 9 1031.0 F 0.0 - Mostly cloudy 10 - - - -
28/08:30pm 7.0 ENE 9 11 1031.1 - 0.0 - - 10 - - - -
28/08:00pm 8.1 ENE 9 9 1031.4 - 0.0 - - 10 - - - -
28/07:30pm 8.2 NE 8 9 1031.3 - 0.0 - - 10 - - - -
28/07:00pm 8.3 NE 6 8 1031.3 - 0.0 - - 10 - - - -
28/06:30pm 9.9 NE 8 9 1031.0 - 0.0 - - 10 - - - -
28/06:00pm 11.1 NE 7 8 1030.9 F 0.0 - - 10 - - - -
28/05:30pm 13.6 NE 7 9 1030.7 - 0.0 - - 10 - - - -
28/05:00pm 14.2 NE 5 7 1031.3 - 0.0 - - 10 - - - -
28/04:30pm 16.1 NNE 9 11 1031.5 - 0.0 - - 10 - - - -
28/04:00pm 15.8 NE 7 11 1031.7 - 0.0 - - 10 - - - -
28/03:30pm 16.3 NNE 9 11 1031.7 - 0.0 - - 10 - - - -
28/03:00pm 16.6 NNE 10 14 1032.3 F 0.0 - - 10 - - - -
28/02:30pm 16.3 NNE 9 13 1032.9 - 0.0 - - 10 - - - -
28/02:00pm 16.3 NNE 10 12 1033.1 - 0.0 - - 10 - - - -
28/01:30pm 15.3 NE 10 14 1033.6 - 0.0 - - 10 - - - -
28/01:00pm 15.6 NE 11 14 1034.1 - 0.0 - - 10 - - - -
28/12:30pm 14.6 NE 10 14 1035.4 - 0.0 - - 10 - - - -
28/12:00pm 14.7 NE 11 14 1035.8 F 0.0 - - 10 - - - -
28/11:30am 14.1 NE 11 14 1036.1 - 0.0 - - 10 - - - -
28/11:00am 12.9 NE 12 15 1036.4 - 0.0 - - 10 - - - -
28/10:30am 12.1 NNE 11 15 1036.5 - 0.0 - - 10 - - - -
28/10:00am 11.1 NNE 11 14 1036.6 - 0.0 - - 10 - - - -
28/09:30am 8.8 NE 11 13 1036.5 - 0.0 - - 10 - - - -
28/09:00am 7.6 NNE 9 12 1036.6 F 0.0 - - 10 - - - -
28/08:30am 5.7 NE 9 11 1036.3 - 0.0 - - 10 - - - -
28/08:00am 4.1 ENE 9 11 1036.2 - 0.0 - - 10 - - - -
28/07:30am 2.5 ENE 10 11 1036.3 - 0.0 - - 10 - - - -
28/07:00am 2.6 ENE 9 10 1036.6 - 0.0 - - 10 - - - -
28/06:30am 2.4 ENE 8 9 1036.6 - 0.0 - - 10 - - - -
28/06:00am 1.5 NE 3 5 1036.7 R 0.0 - - 10 - - - -
28/05:30am 1.2 NE 5 6 1036.3 - 0.0 - - 10 - - - -
28/05:00am 1.0 NNE 5 5 1036.8 - 0.0 - - 10 - - - -
28/04:30am 2.5 NNE 1 3 1037.2 - 0.0 - - 10 - - - -
28/04:00am 1.0 ENE 5 6 1036.6 - 0.0 - - 10 - - - -

Other Formats:

Comma delimited format used in spreadsheet applications
http://www.bom.gov.au/fwo/IDS60701/IDS60701.94653.axf

JavaScript Object Notation format (JSON) in row-major order
http://www.bom.gov.au/fwo/IDS60701/IDS60701.94653.json